logo
Search for airport 
image banner adimage banner adimage banner ad
image banner ad

EPWR - Wroclaw/Strachowice

Located in Wroclaw, Poland

ICAO - EPWR, IATA - WRO

Data provided by Airmate  

General information

Coordinates: N51°6'10" E16°53'9"
Elevation is 406 feet MSL.
Magnetic variation is 5.3833° East
View others Airports in Lower Silesia

Operational data

Special qualification required
Current time UTC:
Current local time:
Weather
METAR: EPWR 170130Z VRB01KT 9999 MIFG NSC 12/11 Q1013
TAF: TAF EPWR 162330Z 1700/1724 13007KT CAVOK PROB40 TEMPO 1712/1721 SHRA BKN050CB
View NOTAMs / SUP AIP / TFR affecting this airport [VIEW]
Communications frequencies: [VIEW]

Runways:

RWY identifierQFULength (ft)Width (ft)SurfaceLDA (ft)
11116°8212148CONC+ASPH8212
29296°8212148CONC+ASPH8212

Airport contact information

Address: Wroclaw Poland

Satellite view of EPWR